sensor_id;sensor_type;location;lat;lon;timestamp;temperature;humidity
26081;DHT22;13991;51.174;4.438;2022-10-20T00:01:18;13.80;99.90
26081;DHT22;13991;51.174;4.438;2022-10-20T00:03:45;13.80;99.90
26081;DHT22;13991;51.174;4.438;2022-10-20T00:06:28;13.80;99.90
26081;DHT22;13991;51.174;4.438;2022-10-20T00:08:56;13.80;99.90
26081;DHT22;13991;51.174;4.438;2022-10-20T00:11:22;13.60;99.90
26081;DHT22;13991;51.174;4.438;2022-10-20T00:13:51;13.70;99.90
26081;DHT22;13991;51.174;4.438;2022-10-20T00:16:17;13.70;99.90
26081;DHT22;13991;51.174;4.438;2022-10-20T00:18:43;13.70;99.90
26081;DHT22;13991;51.174;4.438;2022-10-20T00:21:21;13.70;99.90
26081;DHT22;13991;51.174;4.438;2022-10-20T00:23:47;13.70;99.90
26081;DHT22;13991;51.174;4.438;2022-10-20T00:26:16;13.70;99.90
26081;DHT22;13991;51.174;4.438;2022-10-20T00:28:43;13.70;99.90
26081;DHT22;13991;51.174;4.438;2022-10-20T00:31:08;13.70;99.90
26081;DHT22;13991;51.174;4.438;2022-10-20T00:33:34;13.60;99.90
26081;DHT22;13991;51.174;4.438;2022-10-20T00:36:02;13.70;99.90
26081;DHT22;13991;51.174;4.438;2022-10-20T00:38:28;13.70;99.90
26081;DHT22;13991;51.174;4.438;2022-10-20T00:40:53;13.80;99.90
26081;DHT22;13991;51.174;4.438;2022-10-20T00:43:20;13.60;99.90
26081;DHT22;13991;51.174;4.438;2022-10-20T00:45:51;13.70;99.90
26081;DHT22;13991;51.174;4.438;2022-10-20T00:48:22;13.60;99.90
26081;DHT22;13991;51.174;4.438;2022-10-20T00:50:52;13.60;99.90
26081;DHT22;13991;51.174;4.438;2022-10-20T00:53:21;13.60;99.90
26081;DHT22;13991;51.174;4.438;2022-10-20T00:55:49;13.60;99.90
26081;DHT22;13991;51.174;4.438;2022-10-20T00:58:17;13.70;99.90
26081;DHT22;13991;51.174;4.438;2022-10-20T01:00:44;13.60;99.90
26081;DHT22;13991;51.174;4.438;2022-10-20T01:03:18;13.60;99.90
26081;DHT22;13991;51.174;4.438;2022-10-20T01:05:45;13.60;99.90
26081;DHT22;13991;51.174;4.438;2022-10-20T01:08:10;13.50;99.90
26081;DHT22;13991;51.174;4.438;2022-10-20T01:11:24;13.50;99.90
26081;DHT22;13991;51.174;4.438;2022-10-20T01:14:14;13.50;99.90
26081;DHT22;13991;51.174;4.438;2022-10-20T01:28:26;13.60;99.90
26081;DHT22;13991;51.174;4.438;2022-10-20T01:30:59;13.60;99.90
26081;DHT22;13991;51.174;4.438;2022-10-20T01:33:57;13.50;99.90
26081;DHT22;13991;51.174;4.438;2022-10-20T01:39:24;13.50;99.90
26081;DHT22;13991;51.174;4.438;2022-10-20T01:41:59;13.50;99.90
26081;DHT22;13991;51.174;4.438;2022-10-20T01:44:27;13.40;99.90
26081;DHT22;13991;51.174;4.438;2022-10-20T01:46:54;13.40;99.90
26081;DHT22;13991;51.174;4.438;2022-10-20T01:49:22;13.40;99.90
26081;DHT22;13991;51.174;4.438;2022-10-20T01:51:48;13.30;99.90
26081;DHT22;13991;51.174;4.438;2022-10-20T01:54:28;13.40;99.90
26081;DHT22;13991;51.174;4.438;2022-10-20T01:57:24;13.40;99.90
26081;DHT22;13991;51.174;4.438;2022-10-20T02:02:58;13.40;99.90
26081;DHT22;13991;51.174;4.438;2022-10-20T02:05:30;13.30;99.90
26081;DHT22;13991;51.174;4.438;2022-10-20T02:08:23;13.30;99.90
26081;DHT22;13991;51.174;4.438;2022-10-20T02:10:52;13.40;99.90
26081;DHT22;13991;51.174;4.438;2022-10-20T02:13:20;13.40;99.90
26081;DHT22;13991;51.174;4.438;2022-10-20T02:15:50;13.40;99.90
26081;DHT22;13991;51.174;4.438;2022-10-20T02:18:25;13.40;99.90
26081;DHT22;13991;51.174;4.438;2022-10-20T02:20:54;13.40;99.90
26081;DHT22;13991;51.174;4.438;2022-10-20T02:23:20;13.40;99.90
26081;DHT22;13991;51.174;4.438;2022-10-20T02:25:48;13.50;99.90
26081;DHT22;13991;51.174;4.438;2022-10-20T02:28:16;13.50;99.90
26081;DHT22;13991;51.174;4.438;2022-10-20T02:30:43;13.60;99.90
26081;DHT22;13991;51.174;4.438;2022-10-20T02:33:10;13.40;99.90
26081;DHT22;13991;51.174;4.438;2022-10-20T02:35:37;13.40;99.90
26081;DHT22;13991;51.174;4.438;2022-10-20T02:38:02;13.50;99.90
26081;DHT22;13991;51.174;4.438;2022-10-20T02:40:29;13.30;99.90
26081;DHT22;13991;51.174;4.438;2022-10-20T02:42:54;13.50;99.90
26081;DHT22;13991;51.174;4.438;2022-10-20T02:45:20;13.50;99.90
26081;DHT22;13991;51.174;4.438;2022-10-20T02:47:46;13.50;99.90
26081;DHT22;13991;51.174;4.438;2022-10-20T02:50:11;13.50;99.90
26081;DHT22;13991;51.174;4.438;2022-10-20T02:52:37;13.60;99.90
26081;DHT22;13991;51.174;4.438;2022-10-20T02:55:04;13.60;99.90
26081;DHT22;13991;51.174;4.438;2022-10-20T02:57:30;13.50;99.90
26081;DHT22;13991;51.174;4.438;2022-10-20T02:59:55;13.50;99.90
26081;DHT22;13991;51.174;4.438;2022-10-20T03:02:21;13.50;99.90
26081;DHT22;13991;51.174;4.438;2022-10-20T03:04:47;13.50;99.90
26081;DHT22;13991;51.174;4.438;2022-10-20T03:07:13;13.50;99.90
26081;DHT22;13991;51.174;4.438;2022-10-20T03:09:39;13.50;99.90
26081;DHT22;13991;51.174;4.438;2022-10-20T03:12:05;13.70;99.90
26081;DHT22;13991;51.174;4.438;2022-10-20T03:14:30;13.70;99.90
26081;DHT22;13991;51.174;4.438;2022-10-20T03:16:56;13.60;99.90
26081;DHT22;13991;51.174;4.438;2022-10-20T03:19:21;13.60;99.90
26081;DHT22;13991;51.174;4.438;2022-10-20T03:21:48;13.50;99.90
26081;DHT22;13991;51.174;4.438;2022-10-20T03:24:15;13.50;99.90
26081;DHT22;13991;51.174;4.438;2022-10-20T03:26:41;13.50;99.90
26081;DHT22;13991;51.174;4.438;2022-10-20T03:29:07;13.60;99.90
26081;DHT22;13991;51.174;4.438;2022-10-20T03:31:32;13.50;99.90
26081;DHT22;13991;51.174;4.438;2022-10-20T03:33:58;13.60;99.90
26081;DHT22;13991;51.174;4.438;2022-10-20T03:36:24;13.60;99.90
26081;DHT22;13991;51.174;4.438;2022-10-20T03:38:49;13.70;99.90
26081;DHT22;13991;51.174;4.438;2022-10-20T03:41:15;13.70;99.90
26081;DHT22;13991;51.174;4.438;2022-10-20T03:43:41;13.70;99.90
26081;DHT22;13991;51.174;4.438;2022-10-20T03:46:08;13.60;99.90
26081;DHT22;13991;51.174;4.438;2022-10-20T03:48:35;13.70;99.90
26081;DHT22;13991;51.174;4.438;2022-10-20T03:51:02;13.70;99.90
26081;DHT22;13991;51.174;4.438;2022-10-20T03:53:28;13.70;99.90
26081;DHT22;13991;51.174;4.438;2022-10-20T03:55:54;13.70;99.90
26081;DHT22;13991;51.174;4.438;2022-10-20T03:58:20;13.60;99.90
26081;DHT22;13991;51.174;4.438;2022-10-20T04:00:49;13.60;99.90
26081;DHT22;13991;51.174;4.438;2022-10-20T04:05:45;13.60;99.90
26081;DHT22;13991;51.174;4.438;2022-10-20T04:08:10;13.70;99.90
26081;DHT22;13991;51.174;4.438;2022-10-20T04:10:36;13.80;99.90
26081;DHT22;13991;51.174;4.438;2022-10-20T04:13:02;13.80;99.90
26081;DHT22;13991;51.174;4.438;2022-10-20T04:15:28;13.70;99.90
26081;DHT22;13991;51.174;4.438;2022-10-20T04:17:54;13.80;99.90
26081;DHT22;13991;51.174;4.438;2022-10-20T04:20:19;13.70;99.90
26081;DHT22;13991;51.174;4.438;2022-10-20T04:22:45;13.60;99.90
26081;DHT22;13991;51.174;4.438;2022-10-20T04:25:11;13.60;99.90
26081;DHT22;13991;51.174;4.438;2022-10-20T04:27:38;13.70;99.90
26081;DHT22;13991;51.174;4.438;2022-10-20T04:30:05;13.60;99.90
26081;DHT22;13991;51.174;4.438;2022-10-20T04:32:31;13.60;99.90
26081;DHT22;13991;51.174;4.438;2022-10-20T04:34:56;13.60;99.90
26081;DHT22;13991;51.174;4.438;2022-10-20T04:37:22;13.60;99.90
26081;DHT22;13991;51.174;4.438;2022-10-20T04:39:48;13.60;99.90
26081;DHT22;13991;51.174;4.438;2022-10-20T04:42:18;13.60;99.90
26081;DHT22;13991;51.174;4.438;2022-10-20T04:44:45;13.60;99.90
26081;DHT22;13991;51.174;4.438;2022-10-20T04:47:11;13.60;99.90
26081;DHT22;13991;51.174;4.438;2022-10-20T04:49:37;13.60;99.90
26081;DHT22;13991;51.174;4.438;2022-10-20T04:52:03;13.50;99.90
26081;DHT22;13991;51.174;4.438;2022-10-20T04:54:28;13.50;99.90
26081;DHT22;13991;51.174;4.438;2022-10-20T04:56:54;13.40;99.90
26081;DHT22;13991;51.174;4.438;2022-10-20T04:59:20;13.40;99.90
26081;DHT22;13991;51.174;4.438;2022-10-20T05:01:46;13.40;99.90
26081;DHT22;13991;51.174;4.438;2022-10-20T05:04:12;13.40;99.90
26081;DHT22;13991;51.174;4.438;2022-10-20T05:06:38;13.40;99.90
26081;DHT22;13991;51.174;4.438;2022-10-20T05:09:05;13.40;99.90
26081;DHT22;13991;51.174;4.438;2022-10-20T05:11:34;13.40;99.90
26081;DHT22;13991;51.174;4.438;2022-10-20T05:14:00;13.40;99.90
26081;DHT22;13991;51.174;4.438;2022-10-20T05:16:26;13.50;99.90
26081;DHT22;13991;51.174;4.438;2022-10-20T05:18:52;13.50;99.90
26081;DHT22;13991;51.174;4.438;2022-10-20T05:21:24;13.50;99.90
26081;DHT22;13991;51.174;4.438;2022-10-20T05:24:03;13.40;99.90
26081;DHT22;13991;51.174;4.438;2022-10-20T05:26:31;13.50;99.90
26081;DHT22;13991;51.174;4.438;2022-10-20T05:28:59;13.50;99.90
26081;DHT22;13991;51.174;4.438;2022-10-20T05:31:26;13.50;99.90
26081;DHT22;13991;51.174;4.438;2022-10-20T05:33:53;13.40;99.90
26081;DHT22;13991;51.174;4.438;2022-10-20T05:36:21;13.50;99.90
26081;DHT22;13991;51.174;4.438;2022-10-20T05:38:48;13.40;99.90
26081;DHT22;13991;51.174;4.438;2022-10-20T05:41:17;13.40;99.90
26081;DHT22;13991;51.174;4.438;2022-10-20T05:43:48;13.40;99.90
26081;DHT22;13991;51.174;4.438;2022-10-20T05:46:14;13.40;99.90
26081;DHT22;13991;51.174;4.438;2022-10-20T05:48:40;13.50;99.90
26081;DHT22;13991;51.174;4.438;2022-10-20T05:51:16;13.50;99.90
26081;DHT22;13991;51.174;4.438;2022-10-20T05:53:43;13.50;99.90
26081;DHT22;13991;51.174;4.438;2022-10-20T05:56:11;13.50;99.90
26081;DHT22;13991;51.174;4.438;2022-10-20T05:58:37;13.40;99.90
26081;DHT22;13991;51.174;4.438;2022-10-20T06:01:08;13.50;99.90
26081;DHT22;13991;51.174;4.438;2022-10-20T06:03:34;13.50;99.90
26081;DHT22;13991;51.174;4.438;2022-10-20T06:06:00;13.50;99.90
26081;DHT22;13991;51.174;4.438;2022-10-20T06:08:33;13.50;99.90
26081;DHT22;13991;51.174;4.438;2022-10-20T06:11:04;13.50;99.90
26081;DHT22;13991;51.174;4.438;2022-10-20T06:13:30;13.60;99.90
26081;DHT22;13991;51.174;4.438;2022-10-20T06:16:07;13.60;99.90
26081;DHT22;13991;51.174;4.438;2022-10-20T06:18:34;13.50;99.90
26081;DHT22;13991;51.174;4.438;2022-10-20T06:21:04;13.60;99.90
26081;DHT22;13991;51.174;4.438;2022-10-20T06:23:31;13.60;99.90
26081;DHT22;13991;51.174;4.438;2022-10-20T06:26:04;13.60;99.90
26081;DHT22;13991;51.174;4.438;2022-10-20T06:28:32;13.70;99.90
26081;DHT22;13991;51.174;4.438;2022-10-20T06:30:59;13.70;99.90
26081;DHT22;13991;51.174;4.438;2022-10-20T06:33:27;13.70;99.90
26081;DHT22;13991;51.174;4.438;2022-10-20T06:35:58;13.60;99.90
26081;DHT22;13991;51.174;4.438;2022-10-20T06:38:24;13.70;99.90
26081;DHT22;13991;51.174;4.438;2022-10-20T06:40:50;13.60;99.90
26081;DHT22;13991;51.174;4.438;2022-10-20T06:43:16;13.60;99.90
26081;DHT22;13991;51.174;4.438;2022-10-20T06:45:41;13.50;99.90
26081;DHT22;13991;51.174;4.438;2022-10-20T06:48:07;13.50;99.90
26081;DHT22;13991;51.174;4.438;2022-10-20T06:50:33;13.60;99.90
26081;DHT22;13991;51.174;4.438;2022-10-20T06:52:59;13.70;99.90
26081;DHT22;13991;51.174;4.438;2022-10-20T06:55:24;13.80;99.90
26081;DHT22;13991;51.174;4.438;2022-10-20T06:57:50;13.70;99.90
26081;DHT22;13991;51.174;4.438;2022-10-20T07:00:16;13.60;99.90
26081;DHT22;13991;51.174;4.438;2022-10-20T07:02:41;13.80;99.90
26081;DHT22;13991;51.174;4.438;2022-10-20T07:05:07;13.80;99.90
26081;DHT22;13991;51.174;4.438;2022-10-20T07:07:33;13.80;99.90
26081;DHT22;13991;51.174;4.438;2022-10-20T07:09:59;13.80;99.90
26081;DHT22;13991;51.174;4.438;2022-10-20T07:12:24;13.90;99.90
26081;DHT22;13991;51.174;4.438;2022-10-20T07:14:50;14.00;99.90
26081;DHT22;13991;51.174;4.438;2022-10-20T07:17:16;14.00;99.90
26081;DHT22;13991;51.174;4.438;2022-10-20T07:19:41;14.00;99.90
26081;DHT22;13991;51.174;4.438;2022-10-20T07:22:07;14.00;99.90
26081;DHT22;13991;51.174;4.438;2022-10-20T07:24:32;14.00;99.90
26081;DHT22;13991;51.174;4.438;2022-10-20T07:26:58;14.10;99.90
26081;DHT22;13991;51.174;4.438;2022-10-20T07:29:24;14.20;99.90
26081;DHT22;13991;51.174;4.438;2022-10-20T07:31:49;14.20;99.90
26081;DHT22;13991;51.174;4.438;2022-10-20T07:34:16;14.20;99.90
26081;DHT22;13991;51.174;4.438;2022-10-20T07:36:43;14.30;99.90
26081;DHT22;13991;51.174;4.438;2022-10-20T07:39:11;14.30;99.90
26081;DHT22;13991;51.174;4.438;2022-10-20T07:41:37;14.30;99.90
26081;DHT22;13991;51.174;4.438;2022-10-20T07:44:04;14.40;99.90
26081;DHT22;13991;51.174;4.438;2022-10-20T07:46:30;14.40;99.90
26081;DHT22;13991;51.174;4.438;2022-10-20T07:48:56;14.40;99.90
26081;DHT22;13991;51.174;4.438;2022-10-20T07:54:04;14.50;99.90
26081;DHT22;13991;51.174;4.438;2022-10-20T07:56:34;14.60;99.90
26081;DHT22;13991;51.174;4.438;2022-10-20T07:59:00;14.60;99.90
26081;DHT22;13991;51.174;4.438;2022-10-20T08:01:26;14.60;99.90
26081;DHT22;13991;51.174;4.438;2022-10-20T08:03:52;14.70;99.90
26081;DHT22;13991;51.174;4.438;2022-10-20T08:06:18;14.70;99.90
26081;DHT22;13991;51.174;4.438;2022-10-20T08:08:43;14.70;99.90
26081;DHT22;13991;51.174;4.438;2022-10-20T08:11:09;14.80;99.90
26081;DHT22;13991;51.174;4.438;2022-10-20T08:13:35;14.80;99.90
26081;DHT22;13991;51.174;4.438;2022-10-20T08:16:02;14.90;99.90
26081;DHT22;13991;51.174;4.438;2022-10-20T08:18:28;14.80;99.90
26081;DHT22;13991;51.174;4.438;2022-10-20T08:21:05;14.80;99.90
26081;DHT22;13991;51.174;4.438;2022-10-20T08:23:31;14.90;99.90
26081;DHT22;13991;51.174;4.438;2022-10-20T08:25:56;14.90;99.90
26081;DHT22;13991;51.174;4.438;2022-10-20T08:28:22;15.00;99.90
26081;DHT22;13991;51.174;4.438;2022-10-20T08:30:47;15.20;99.90
26081;DHT22;13991;51.174;4.438;2022-10-20T08:33:13;15.30;99.90
26081;DHT22;13991;51.174;4.438;2022-10-20T08:35:39;15.30;99.90
26081;DHT22;13991;51.174;4.438;2022-10-20T08:38:05;15.40;99.90
26081;DHT22;13991;51.174;4.438;2022-10-20T08:40:31;15.40;99.90
26081;DHT22;13991;51.174;4.438;2022-10-20T08:42:58;15.50;99.90
26081;DHT22;13991;51.174;4.438;2022-10-20T08:45:25;15.50;99.90
26081;DHT22;13991;51.174;4.438;2022-10-20T08:47:53;15.60;99.90
26081;DHT22;13991;51.174;4.438;2022-10-20T08:50:20;15.60;99.90
26081;DHT22;13991;51.174;4.438;2022-10-20T08:52:50;15.70;99.90
26081;DHT22;13991;51.174;4.438;2022-10-20T08:55:31;15.70;99.90
26081;DHT22;13991;51.174;4.438;2022-10-20T08:58:00;15.70;99.90
26081;DHT22;13991;51.174;4.438;2022-10-20T09:00:27;15.70;99.90
26081;DHT22;13991;51.174;4.438;2022-10-20T09:02:56;15.70;99.90
26081;DHT22;13991;51.174;4.438;2022-10-20T09:05:26;15.60;99.90
26081;DHT22;13991;51.174;4.438;2022-10-20T09:07:53;15.60;99.90
26081;DHT22;13991;51.174;4.438;2022-10-20T09:10:37;15.70;99.90
26081;DHT22;13991;51.174;4.438;2022-10-20T09:13:33;15.60;99.90
26081;DHT22;13991;51.174;4.438;2022-10-20T09:16:04;15.50;99.90
26081;DHT22;13991;51.174;4.438;2022-10-20T09:18:32;15.60;99.90
26081;DHT22;13991;51.174;4.438;2022-10-20T09:21:02;15.50;99.90
26081;DHT22;13991;51.174;4.438;2022-10-20T09:23:41;15.60;99.90
26081;DHT22;13991;51.174;4.438;2022-10-20T09:26:15;15.50;99.90
26081;DHT22;13991;51.174;4.438;2022-10-20T09:28:41;15.60;99.90
26081;DHT22;13991;51.174;4.438;2022-10-20T09:31:30;15.50;99.90
26081;DHT22;13991;51.174;4.438;2022-10-20T09:33:57;15.50;99.90
26081;DHT22;13991;51.174;4.438;2022-10-20T09:36:26;15.50;99.90
26081;DHT22;13991;51.174;4.438;2022-10-20T09:38:53;15.50;99.90
26081;DHT22;13991;51.174;4.438;2022-10-20T09:41:22;15.60;99.90
26081;DHT22;13991;51.174;4.438;2022-10-20T09:44:07;15.60;99.90
26081;DHT22;13991;51.174;4.438;2022-10-20T09:46:44;15.60;99.90
26081;DHT22;13991;51.174;4.438;2022-10-20T09:49:27;15.60;99.90
26081;DHT22;13991;51.174;4.438;2022-10-20T09:51:54;15.60;99.90
26081;DHT22;13991;51.174;4.438;2022-10-20T09:54:23;15.60;99.90
26081;DHT22;13991;51.174;4.438;2022-10-20T09:56:49;15.60;99.90
26081;DHT22;13991;51.174;4.438;2022-10-20T09:59:37;15.70;99.90
26081;DHT22;13991;51.174;4.438;2022-10-20T10:04:50;15.60;99.90
26081;DHT22;13991;51.174;4.438;2022-10-20T10:10:21;15.70;99.90
26081;DHT22;13991;51.174;4.438;2022-10-20T10:12:53;15.70;99.90
26081;DHT22;13991;51.174;4.438;2022-10-20T10:17:49;15.90;99.90
26081;DHT22;13991;51.174;4.438;2022-10-20T10:22:43;15.90;99.90
26081;DHT22;13991;51.174;4.438;2022-10-20T10:25:35;15.90;99.90
26081;DHT22;13991;51.174;4.438;2022-10-20T10:28:18;15.90;99.90
26081;DHT22;13991;51.174;4.438;2022-10-20T10:30:44;15.90;99.90
26081;DHT22;13991;51.174;4.438;2022-10-20T10:33:28;16.00;99.90
26081;DHT22;13991;51.174;4.438;2022-10-20T10:35:54;16.00;99.90
26081;DHT22;13991;51.174;4.438;2022-10-20T10:38:20;16.10;99.90
26081;DHT22;13991;51.174;4.438;2022-10-20T10:46:05;16.20;99.90
26081;DHT22;13991;51.174;4.438;2022-10-20T10:52:08;16.30;99.90
26081;DHT22;13991;51.174;4.438;2022-10-20T10:54:17;16.20;99.90
26081;DHT22;13991;51.174;4.438;2022-10-20T10:56:53;16.30;99.90
26081;DHT22;13991;51.174;4.438;2022-10-20T10:59:35;16.20;99.90
26081;DHT22;13991;51.174;4.438;2022-10-20T11:07:44;16.40;99.90
26081;DHT22;13991;51.174;4.438;2022-10-20T11:26:59;17.10;99.90
26081;DHT22;13991;51.174;4.438;2022-10-20T11:29:43;17.30;99.90
26081;DHT22;13991;51.174;4.438;2022-10-20T11:32:40;17.40;99.90
26081;DHT22;13991;51.174;4.438;2022-10-20T11:38:26;17.60;99.90
26081;DHT22;13991;51.174;4.438;2022-10-20T11:41:07;17.70;99.90
26081;DHT22;13991;51.174;4.438;2022-10-20T11:43:40;17.80;99.90
26081;DHT22;13991;51.174;4.438;2022-10-20T11:48:39;17.90;99.90
26081;DHT22;13991;51.174;4.438;2022-10-20T12:15:51;19.50;99.90
26081;DHT22;13991;51.174;4.438;2022-10-20T12:18:26;19.40;99.90
26081;DHT22;13991;51.174;4.438;2022-10-20T12:21:06;19.30;99.90
26081;DHT22;13991;51.174;4.438;2022-10-20T12:29:05;19.10;99.90
26081;DHT22;13991;51.174;4.438;2022-10-20T12:34:48;19.10;99.90
26081;DHT22;13991;51.174;4.438;2022-10-20T12:37:34;19.30;99.90
26081;DHT22;13991;51.174;4.438;2022-10-20T12:40:18;19.50;99.90
26081;DHT22;13991;51.174;4.438;2022-10-20T12:42:46;19.70;99.90
26081;DHT22;13991;51.174;4.438;2022-10-20T12:47:51;20.20;99.90
26081;DHT22;13991;51.174;4.438;2022-10-20T12:53:21;20.40;99.90
26081;DHT22;13991;51.174;4.438;2022-10-20T12:56:02;20.60;99.90
26081;DHT22;13991;51.174;4.438;2022-10-20T12:58:31;20.60;99.90
26081;DHT22;13991;51.174;4.438;2022-10-20T13:14:12;20.70;99.90
26081;DHT22;13991;51.174;4.438;2022-10-20T13:16:55;20.60;99.90
26081;DHT22;13991;51.174;4.438;2022-10-20T13:19:32;20.70;99.90
26081;DHT22;13991;51.174;4.438;2022-10-20T13:22:39;20.90;99.90
26081;DHT22;13991;51.174;4.438;2022-10-20T13:25:35;21.10;99.90
26081;DHT22;13991;51.174;4.438;2022-10-20T13:33:45;21.20;99.90
26081;DHT22;13991;51.174;4.438;2022-10-20T13:36:22;21.40;99.90
26081;DHT22;13991;51.174;4.438;2022-10-20T13:39:18;21.50;99.90
26081;DHT22;13991;51.174;4.438;2022-10-20T13:42:04;21.50;99.90
26081;DHT22;13991;51.174;4.438;2022-10-20T13:45:10;21.50;99.90
26081;DHT22;13991;51.174;4.438;2022-10-20T13:50:20;21.60;99.90
26081;DHT22;13991;51.174;4.438;2022-10-20T13:52:49;21.60;99.90
26081;DHT22;13991;51.174;4.438;2022-10-20T13:55:22;21.70;99.90
26081;DHT22;13991;51.174;4.438;2022-10-20T13:58:05;21.60;99.90
26081;DHT22;13991;51.174;4.438;2022-10-20T14:00:32;21.40;99.90
26081;DHT22;13991;51.174;4.438;2022-10-20T14:03:14;21.40;99.90
26081;DHT22;13991;51.174;4.438;2022-10-20T14:05:40;21.40;99.90
26081;DHT22;13991;51.174;4.438;2022-10-20T14:08:10;21.30;99.90
26081;DHT22;13991;51.174;4.438;2022-10-20T14:11:11;21.40;99.90
26081;DHT22;13991;51.174;4.438;2022-10-20T14:13:37;21.20;99.90
26081;DHT22;13991;51.174;4.438;2022-10-20T14:16:04;21.20;99.90
26081;DHT22;13991;51.174;4.438;2022-10-20T14:18:34;21.30;99.90
26081;DHT22;13991;51.174;4.438;2022-10-20T14:21:16;21.30;99.90
26081;DHT22;13991;51.174;4.438;2022-10-20T14:23:44;21.30;99.90
26081;DHT22;13991;51.174;4.438;2022-10-20T14:26:13;21.40;99.90
26081;DHT22;13991;51.174;4.438;2022-10-20T14:28:42;21.30;99.90
26081;DHT22;13991;51.174;4.438;2022-10-20T14:31:10;21.30;99.90
26081;DHT22;13991;51.174;4.438;2022-10-20T14:33:43;21.30;99.90
26081;DHT22;13991;51.174;4.438;2022-10-20T14:36:25;21.10;99.90
26081;DHT22;13991;51.174;4.438;2022-10-20T14:38:56;21.00;99.90
26081;DHT22;13991;51.174;4.438;2022-10-20T14:41:30;21.00;99.90
26081;DHT22;13991;51.174;4.438;2022-10-20T14:44:04;20.90;99.90
26081;DHT22;13991;51.174;4.438;2022-10-20T14:46:37;20.80;99.90
26081;DHT22;13991;51.174;4.438;2022-10-20T14:49:12;20.80;99.90
26081;DHT22;13991;51.174;4.438;2022-10-20T14:51:47;20.90;99.90
26081;DHT22;13991;51.174;4.438;2022-10-20T14:59:25;20.70;99.90
26081;DHT22;13991;51.174;4.438;2022-10-20T15:02:07;20.70;99.90
26081;DHT22;13991;51.174;4.438;2022-10-20T15:04:44;20.70;99.90
26081;DHT22;13991;51.174;4.438;2022-10-20T15:07:16;20.70;99.90
26081;DHT22;13991;51.174;4.438;2022-10-20T15:09:48;20.60;99.90
26081;DHT22;13991;51.174;4.438;2022-10-20T15:12:40;20.60;99.90
26081;DHT22;13991;51.174;4.438;2022-10-20T15:17:38;20.50;99.90
26081;DHT22;13991;51.174;4.438;2022-10-20T15:23:17;20.40;99.90
26081;DHT22;13991;51.174;4.438;2022-10-20T15:26:04;20.40;99.90
26081;DHT22;13991;51.174;4.438;2022-10-20T15:28:47;20.40;99.90
26081;DHT22;13991;51.174;4.438;2022-10-20T15:31:25;20.30;99.90
26081;DHT22;13991;51.174;4.438;2022-10-20T15:33:52;20.20;99.90
26081;DHT22;13991;51.174;4.438;2022-10-20T15:36:20;20.20;99.90
26081;DHT22;13991;51.174;4.438;2022-10-20T15:38:49;20.10;99.90
26081;DHT22;13991;51.174;4.438;2022-10-20T15:41:18;20.10;99.90
26081;DHT22;13991;51.174;4.438;2022-10-20T15:43:43;20.20;99.90
26081;DHT22;13991;51.174;4.438;2022-10-20T15:46:14;20.10;99.90
26081;DHT22;13991;51.174;4.438;2022-10-20T15:48:41;20.10;99.90
26081;DHT22;13991;51.174;4.438;2022-10-20T15:53:42;20.10;99.90
26081;DHT22;13991;51.174;4.438;2022-10-20T15:56:10;20.00;99.90
26081;DHT22;13991;51.174;4.438;2022-10-20T15:58:36;20.00;99.90
26081;DHT22;13991;51.174;4.438;2022-10-20T16:01:01;20.00;99.90
26081;DHT22;13991;51.174;4.438;2022-10-20T16:03:27;19.90;99.90
26081;DHT22;13991;51.174;4.438;2022-10-20T16:05:52;19.90;99.90
26081;DHT22;13991;51.174;4.438;2022-10-20T16:08:18;19.80;99.90
26081;DHT22;13991;51.174;4.438;2022-10-20T16:10:44;19.90;99.90
26081;DHT22;13991;51.174;4.438;2022-10-20T16:13:10;19.80;99.90
26081;DHT22;13991;51.174;4.438;2022-10-20T16:15:36;19.80;99.90
26081;DHT22;13991;51.174;4.438;2022-10-20T16:18:02;19.80;99.90
26081;DHT22;13991;51.174;4.438;2022-10-20T16:20:28;19.80;99.90
26081;DHT22;13991;51.174;4.438;2022-10-20T16:22:53;19.70;99.90
26081;DHT22;13991;51.174;4.438;2022-10-20T16:27:54;19.70;99.90
26081;DHT22;13991;51.174;4.438;2022-10-20T16:30:20;19.70;99.90
26081;DHT22;13991;51.174;4.438;2022-10-20T16:32:45;19.60;99.90
26081;DHT22;13991;51.174;4.438;2022-10-20T16:35:11;19.50;99.90
26081;DHT22;13991;51.174;4.438;2022-10-20T16:37:37;19.60;99.90
26081;DHT22;13991;51.174;4.438;2022-10-20T16:40:03;19.50;99.90
26081;DHT22;13991;51.174;4.438;2022-10-20T16:42:29;19.50;99.90
26081;DHT22;13991;51.174;4.438;2022-10-20T16:44:55;19.50;99.90
26081;DHT22;13991;51.174;4.438;2022-10-20T16:47:21;19.50;99.90
26081;DHT22;13991;51.174;4.438;2022-10-20T16:49:46;19.40;99.90
26081;DHT22;13991;51.174;4.438;2022-10-20T16:52:12;19.40;99.90
26081;DHT22;13991;51.174;4.438;2022-10-20T16:54:38;19.40;99.90
26081;DHT22;13991;51.174;4.438;2022-10-20T16:57:03;19.40;99.90
26081;DHT22;13991;51.174;4.438;2022-10-20T16:59:32;19.30;99.90
26081;DHT22;13991;51.174;4.438;2022-10-20T17:01:58;19.30;99.90
26081;DHT22;13991;51.174;4.438;2022-10-20T17:04:23;19.30;99.90
26081;DHT22;13991;51.174;4.438;2022-10-20T17:06:49;19.20;99.90
26081;DHT22;13991;51.174;4.438;2022-10-20T17:09:15;19.20;99.90
26081;DHT22;13991;51.174;4.438;2022-10-20T17:11:40;19.10;99.90
26081;DHT22;13991;51.174;4.438;2022-10-20T17:14:06;19.40;99.90
26081;DHT22;13991;51.174;4.438;2022-10-20T17:16:33;19.20;99.90
26081;DHT22;13991;51.174;4.438;2022-10-20T17:19:00;19.20;99.90
26081;DHT22;13991;51.174;4.438;2022-10-20T17:21:28;19.20;99.90
26081;DHT22;13991;51.174;4.438;2022-10-20T17:23:55;19.10;99.90
26081;DHT22;13991;51.174;4.438;2022-10-20T17:26:23;19.10;99.90
26081;DHT22;13991;51.174;4.438;2022-10-20T17:28:52;19.10;99.90
26081;DHT22;13991;51.174;4.438;2022-10-20T17:31:18;19.00;99.90
26081;DHT22;13991;51.174;4.438;2022-10-20T17:33:45;19.00;99.90
26081;DHT22;13991;51.174;4.438;2022-10-20T17:36:11;19.00;99.90
26081;DHT22;13991;51.174;4.438;2022-10-20T17:38:38;19.10;99.90
26081;DHT22;13991;51.174;4.438;2022-10-20T17:41:05;19.00;99.90
26081;DHT22;13991;51.174;4.438;2022-10-20T17:43:32;19.00;99.90
26081;DHT22;13991;51.174;4.438;2022-10-20T17:46:10;19.00;99.90
26081;DHT22;13991;51.174;4.438;2022-10-20T17:48:37;19.00;99.90
26081;DHT22;13991;51.174;4.438;2022-10-20T17:51:06;19.00;99.90
26081;DHT22;13991;51.174;4.438;2022-10-20T17:53:34;18.90;99.90
26081;DHT22;13991;51.174;4.438;2022-10-20T17:56:14;18.90;99.90
26081;DHT22;13991;51.174;4.438;2022-10-20T17:58:43;18.90;99.90
26081;DHT22;13991;51.174;4.438;2022-10-20T18:01:22;18.80;99.90
26081;DHT22;13991;51.174;4.438;2022-10-20T18:03:53;18.80;99.90
26081;DHT22;13991;51.174;4.438;2022-10-20T18:06:21;18.70;99.90
26081;DHT22;13991;51.174;4.438;2022-10-20T18:08:47;18.70;99.90
26081;DHT22;13991;51.174;4.438;2022-10-20T18:11:16;18.70;99.90
26081;DHT22;13991;51.174;4.438;2022-10-20T18:13:43;18.70;99.90